ETWM

Details ICAO ETWM
Name Meppen
Region Germany - Military
Timezone Europe/Berlin (UTC+2.0)
Plans Departing 1
Arriving 2
Stats Elevation 68 ft / 21 m (AMSL)
Location 52.721944° 7.327494°
Runways 1
Magnetic Variation 2.005° E
Sunrise 2018-05-21 03:26:35 UTC / 2018-05-21 05:26:35 Local
Sunset 2018-05-21 19:30:50 UTC / 2018-05-21 21:30:50 Local
Advertisement - Login to hide

Runways

ID Width Length Bearing (true) Bearing (mag) Surface Threshold Offset Overrun Length
24 49 ft / 15 m 601 ft / 183 m 240.00° 238.00° Grass 0 ft / 0 m 0 ft / 0 m
6 49 ft / 15 m 601 ft / 183 m 60.00° 58.00° Grass 0 ft / 0 m 0 ft / 0 m

Map

Weather


0- 5 10 15 20 25 30 35+ Temperature / ° C

Clouds and Precipitation
Forecast for 2018-05-21 06:00 UTC. Updated 3 hours ago

Ground ~20,000 ft ~40,000 ft Winds

METAR

ETWM 210720Z AUTO 08007KT 9999 // ////// 18/07 Q1020 ///

TAF

Not found

Frequencies

Tower 122.10 MHz Meppen INFO
Warning: Do not use this data for real-world aviation or navigation. No guarantee of current accuracy is given.